createdAt,value
2018-12-26T03:01:47.718Z,5.40
2018-12-26T03:37:31.915Z,5.30
2018-12-26T03:40:20.311Z,5.30
2018-12-26T03:43:08.663Z,5.30
2018-12-26T04:22:40.681Z,5.40
2018-12-26T04:25:28.627Z,5.40
2018-12-26T04:28:16.836Z,5.40
2018-12-26T05:32:47.428Z,5.50
2018-12-26T05:35:34.473Z,5.50
2018-12-26T05:41:10.984Z,5.60
2018-12-26T05:43:58.322Z,5.50
2018-12-26T05:46:44.901Z,5.50
2018-12-26T05:49:32.400Z,5.60
2018-12-26T05:52:19.893Z,5.50
2018-12-26T05:55:07.008Z,5.50
2018-12-26T05:57:54.403Z,5.50
2018-12-26T06:00:41.036Z,5.60
2018-12-26T06:03:27.521Z,5.60
2018-12-26T06:06:14.095Z,5.60
2018-12-26T06:09:01.172Z,5.60
2018-12-26T06:11:48.487Z,5.60
2018-12-26T06:14:35.744Z,5.60
2018-12-26T06:17:23.148Z,5.60
2018-12-26T06:20:10.542Z,5.60
2018-12-26T06:22:57.039Z,5.60
2018-12-26T06:25:44.293Z,5.60
2018-12-26T06:28:31.699Z,5.70
2018-12-26T06:31:19.202Z,5.70
2018-12-26T06:34:05.973Z,5.70
2018-12-26T06:36:53.347Z,5.70
2018-12-26T06:39:39.993Z,5.70
2018-12-26T06:42:27.441Z,5.70
2018-12-26T06:45:14.421Z,5.70
2018-12-26T06:48:01.621Z,5.70
2018-12-26T06:50:49.064Z,5.70
2018-12-26T06:53:36.422Z,5.80
2018-12-26T06:56:23.802Z,5.80
2018-12-26T06:59:10.609Z,5.80
2018-12-26T07:04:47.111Z,5.80
2018-12-26T07:07:33.663Z,5.80
2018-12-26T07:10:20.855Z,5.80
2018-12-26T07:13:07.639Z,5.80
2018-12-26T07:15:54.757Z,5.80
2018-12-26T07:18:44.751Z,5.80
2018-12-26T07:21:31.235Z,5.80
2018-12-26T07:24:18.522Z,5.80
2018-12-26T07:27:05.940Z,5.80
2018-12-26T07:29:51.288Z,5.80
2018-12-26T09:48:14.810Z,6.30
2018-12-26T09:50:44.176Z,6.30
2018-12-26T09:53:13.322Z,6.40
2018-12-26T09:55:42.425Z,6.40
2018-12-26T09:58:11.595Z,6.40
2018-12-26T10:00:40.931Z,6.50
2018-12-26T10:03:09.961Z,6.50
2018-12-26T10:05:39.065Z,6.50
2018-12-26T10:08:08.159Z,6.60
2018-12-26T10:10:37.344Z,6.60
2018-12-26T10:13:06.744Z,6.60
2018-12-26T10:15:35.776Z,6.60
2018-12-26T10:18:04.956Z,6.60
2018-12-26T10:20:34.088Z,6.70
2018-12-26T10:23:03.256Z,6.70
2018-12-26T10:25:32.316Z,6.80
2018-12-26T10:28:02.601Z,6.80
2018-12-26T10:30:31.756Z,6.90
2018-12-26T10:33:00.837Z,6.90
2018-12-26T10:35:29.937Z,6.90
2018-12-26T10:37:58.943Z,6.90
2018-12-26T10:40:28.109Z,6.80
2018-12-26T10:42:57.261Z,6.80
2018-12-26T10:45:26.494Z,6.80
2018-12-26T10:47:55.626Z,6.90
2018-12-26T10:50:24.622Z,6.90
2018-12-26T10:52:53.938Z,6.90
2018-12-26T10:55:23.195Z,7.00
2018-12-26T10:57:52.332Z,7.00
2018-12-26T11:00:21.720Z,7.00
2018-12-26T11:02:50.933Z,6.90
2018-12-26T11:05:20.110Z,6.90
2018-12-26T11:07:49.311Z,6.80
2018-12-26T11:10:18.329Z,6.90
2018-12-26T11:12:47.559Z,6.90
2018-12-26T11:15:16.639Z,6.90
2018-12-26T11:17:45.912Z,6.90
2018-12-26T11:20:16.520Z,6.90
2018-12-26T11:22:45.505Z,7.00
2018-12-26T11:25:14.644Z,7.00
2018-12-26T11:27:43.849Z,7.00
2018-12-26T11:30:12.926Z,7.00
2018-12-26T11:32:42.102Z,7.00
2018-12-26T11:35:11.179Z,7.00
2018-12-26T11:37:40.318Z,7.00
2018-12-26T11:40:10.344Z,7.00
2018-12-26T11:42:39.481Z,7.00
2018-12-26T11:45:11.378Z,7.10
2018-12-26T11:47:40.475Z,7.10
2018-12-26T11:50:09.638Z,7.10
2018-12-26T11:52:38.862Z,7.10
2018-12-26T11:55:08.309Z,7.10
2018-12-26T11:57:37.387Z,7.10
2018-12-26T12:00:10.076Z,7.10
2018-12-26T12:02:39.273Z,7.10
2018-12-26T12:05:08.336Z,7.10
2018-12-26T12:07:37.425Z,7.10
2018-12-26T12:10:09.153Z,7.10
2018-12-26T12:12:38.211Z,7.10
2018-12-26T12:15:07.359Z,7.10
2018-12-26T12:17:36.408Z,7.20
2018-12-26T12:20:07.081Z,7.20
2018-12-26T12:22:36.122Z,7.20
2018-12-26T12:25:05.272Z,7.20
2018-12-26T12:27:36.927Z,7.20
2018-12-26T12:30:06.389Z,7.20
2018-12-26T12:32:35.471Z,7.20
2018-12-26T12:35:04.962Z,7.20
2018-12-26T12:37:34.119Z,7.20
2018-12-26T12:40:03.348Z,7.20
2018-12-26T12:42:33.495Z,7.20
2018-12-26T12:45:03.013Z,7.20
2018-12-26T12:47:32.324Z,7.20
2018-12-26T12:50:01.708Z,7.20
2018-12-26T12:52:30.988Z,7.20
2018-12-26T12:55:00.161Z,7.10
2018-12-26T12:57:29.249Z,7.10
2018-12-26T12:59:58.519Z,7.10
2018-12-26T13:02:27.643Z,7.10
2018-12-26T13:04:56.775Z,7.00
2018-12-26T13:07:25.888Z,7.00
2018-12-26T13:09:54.899Z,7.00
2018-12-26T13:12:24.224Z,7.00
2018-12-26T13:14:53.304Z,7.00
2018-12-26T13:17:22.374Z,7.00
2018-12-26T13:19:51.479Z,7.10
2018-12-26T13:22:20.661Z,7.10
2018-12-26T13:24:49.797Z,7.10
2018-12-26T13:27:20.475Z,7.10
2018-12-26T13:29:53.609Z,7.10
2018-12-26T13:32:20.626Z,7.10
2018-12-26T13:34:49.607Z,7.10
2018-12-26T13:37:18.688Z,7.10
2018-12-26T13:39:47.777Z,7.10
2018-12-26T13:42:16.851Z,7.10
2018-12-26T13:44:45.906Z,7.10
2018-12-26T13:47:14.987Z,7.10
2018-12-26T13:49:44.078Z,7.10
2018-12-26T13:52:13.114Z,7.20
2018-12-26T13:54:42.567Z,7.20
2018-12-26T13:57:11.574Z,7.10
2018-12-26T13:59:40.813Z,7.10
2018-12-26T14:02:10.017Z,7.10
2018-12-26T14:04:39.125Z,7.10
2018-12-26T14:07:08.221Z,7.10
2018-12-26T14:09:39.097Z,7.10
2018-12-26T14:12:08.259Z,7.10
2018-12-26T14:14:37.231Z,7.10
2018-12-26T14:17:06.199Z,7.10
2018-12-26T14:19:35.136Z,7.10
2018-12-26T14:22:04.200Z,7.10
2018-12-26T14:24:33.186Z,7.10
2018-12-26T14:27:02.222Z,7.00
2018-12-26T14:29:31.216Z,7.00
2018-12-26T14:32:00.364Z,7.00
2018-12-26T14:34:29.502Z,7.00
2018-12-26T14:37:01.663Z,7.00
2018-12-26T14:39:30.570Z,7.00
2018-12-26T14:41:59.531Z,7.00
2018-12-26T14:44:28.576Z,7.00
2018-12-26T14:46:57.651Z,7.00
2018-12-26T14:49:26.711Z,7.00
2018-12-26T14:51:55.727Z,6.90
2018-12-26T14:54:24.842Z,7.00
2018-12-26T14:56:53.869Z,6.90
2018-12-26T14:59:22.930Z,6.90
2018-12-26T15:01:52.024Z,6.90
2018-12-26T15:04:21.160Z,6.90
2018-12-26T15:06:50.197Z,6.90
2018-12-26T15:09:22.136Z,6.90
2018-12-26T15:11:51.220Z,6.90
2018-12-26T15:14:20.205Z,6.90
2018-12-26T15:16:49.268Z,6.90
2018-12-26T15:19:19.818Z,6.90
2018-12-26T15:21:48.899Z,6.80
2018-12-26T15:24:17.900Z,6.80
2018-12-26T15:26:47.043Z,6.80
2018-12-26T15:29:16.153Z,6.80
2018-12-26T15:31:45.194Z,6.80
2018-12-26T15:34:14.272Z,6.80
2018-12-26T15:36:56.302Z,6.80
2018-12-26T15:39:25.324Z,6.80
2018-12-26T15:41:54.668Z,6.70
2018-12-26T15:44:23.710Z,6.70
2018-12-26T15:46:52.833Z,6.70
2018-12-26T15:49:21.822Z,6.70
2018-12-26T15:51:50.935Z,6.70
2018-12-26T15:54:20.007Z,6.70
2018-12-26T15:56:49.069Z,6.60
2018-12-26T15:59:18.143Z,6.60
2018-12-26T16:01:47.142Z,6.60
2018-12-26T16:04:16.182Z,6.60
2018-12-26T16:06:45.271Z,6.60
2018-12-26T16:09:17.411Z,6.60
2018-12-26T16:11:46.504Z,6.50
2018-12-26T16:14:15.644Z,6.50
2018-12-26T16:16:44.695Z,6.40
2018-12-26T16:19:13.694Z,6.40
2018-12-26T16:21:42.710Z,6.30
2018-12-26T16:24:11.863Z,6.20
2018-12-26T16:26:40.909Z,6.20
2018-12-26T16:29:09.978Z,6.10
2018-12-26T16:31:39.074Z,6.00
2018-12-26T16:34:08.180Z,5.90
2018-12-26T16:36:37.258Z,5.90
2018-12-26T16:39:09.652Z,5.90
2018-12-26T16:41:38.155Z,5.90
2018-12-26T16:44:07.231Z,5.80
2018-12-26T16:46:36.309Z,5.80
2018-12-26T16:49:05.374Z,5.80
2018-12-26T16:51:34.524Z,5.70
2018-12-26T16:54:03.608Z,5.70
2018-12-26T16:56:32.668Z,5.70
2018-12-26T16:59:01.770Z,5.70
2018-12-26T17:01:30.879Z,5.60
2018-12-26T17:03:59.951Z,5.60
2018-12-26T17:06:29.049Z,5.60
2018-12-26T17:08:58.079Z,5.60
2018-12-26T17:11:27.032Z,5.60
2018-12-26T17:13:55.958Z,5.60
2018-12-26T17:16:25.026Z,5.60
2018-12-26T17:18:56.090Z,5.60
2018-12-26T17:21:25.195Z,5.60
2018-12-26T17:23:54.311Z,5.60
2018-12-26T17:26:24.635Z,5.60
2018-12-26T17:28:53.717Z,5.60
2018-12-26T17:31:22.739Z,5.70
2018-12-26T17:33:51.674Z,5.70
2018-12-26T17:36:20.821Z,5.70
2018-12-26T17:38:49.887Z,5.70
2018-12-26T17:41:18.955Z,5.70
2018-12-26T17:43:49.039Z,5.70
2018-12-26T17:46:18.086Z,5.70
2018-12-26T17:48:47.125Z,5.70
2018-12-26T17:51:19.349Z,5.70
2018-12-26T17:54:15.658Z,5.70
2018-12-26T17:57:12.673Z,5.60
2018-12-26T18:00:26.531Z,5.60
2018-12-26T18:02:55.487Z,5.60
2018-12-26T18:05:24.514Z,5.50
2018-12-26T18:07:53.576Z,5.50
2018-12-26T18:10:22.691Z,5.50
2018-12-26T18:12:51.846Z,5.50
2018-12-26T18:15:20.937Z,5.50
2018-12-26T18:17:49.978Z,5.50
2018-12-26T18:20:19.015Z,5.50
2018-12-26T18:22:48.198Z,5.50
2018-12-26T18:25:18.298Z,5.40
2018-12-26T18:27:47.569Z,5.40
2018-12-26T18:30:16.581Z,5.30
2018-12-26T18:32:45.682Z,5.30
2018-12-26T18:35:14.835Z,5.30
2018-12-26T18:37:43.989Z,5.30
2018-12-26T18:40:12.997Z,5.20
2018-12-26T18:42:42.078Z,5.20
2018-12-26T18:45:11.152Z,5.20
2018-12-26T18:47:40.151Z,5.20
2018-12-26T18:50:10.881Z,5.20
2018-12-26T18:52:40.033Z,5.10
2018-12-26T18:55:09.410Z,5.10
2018-12-26T18:57:38.444Z,5.10
2018-12-26T19:00:10.884Z,5.10
2018-12-26T19:02:40.007Z,5.00
2018-12-26T19:05:10.425Z,5.00
2018-12-26T19:07:39.524Z,5.10
2018-12-26T19:10:10.078Z,5.10
2018-12-26T19:12:39.175Z,5.00
2018-12-26T19:15:09.098Z,5.00
2018-12-26T19:17:38.127Z,5.00
2018-12-26T19:20:09.091Z,5.00
2018-12-26T19:22:38.116Z,4.90
2018-12-26T19:25:07.237Z,4.90
2018-12-26T19:27:37.230Z,4.90
2018-12-26T19:30:09.180Z,4.90
2018-12-26T19:32:38.440Z,4.90
2018-12-26T19:35:12.140Z,4.80
2018-12-26T19:37:43.591Z,4.80
2018-12-26T19:40:12.737Z,4.80
2018-12-26T19:42:41.842Z,4.80
2018-12-26T19:45:10.878Z,4.90
2018-12-26T19:47:39.990Z,4.80
2018-12-26T19:50:09.683Z,4.80
2018-12-26T19:52:38.741Z,4.80
2018-12-26T19:55:08.796Z,4.80
2018-12-26T19:57:37.819Z,4.80
2018-12-26T20:00:07.731Z,4.80
2018-12-26T20:02:36.842Z,4.80
2018-12-26T20:05:05.968Z,4.80
2018-12-26T20:07:35.040Z,4.80
2018-12-26T20:10:04.931Z,4.70
2018-12-26T20:12:34.130Z,4.70
2018-12-26T20:15:03.276Z,4.70
2018-12-26T20:17:32.364Z,4.70
2018-12-26T20:20:01.486Z,4.70
2018-12-26T20:22:30.746Z,4.60
2018-12-26T20:24:59.780Z,4.60
2018-12-26T20:27:28.883Z,4.60
2018-12-26T20:29:57.928Z,4.60
2018-12-26T20:32:26.962Z,4.60
2018-12-26T20:34:56.104Z,4.60
2018-12-26T20:37:25.141Z,4.60
2018-12-26T20:39:54.412Z,4.50
2018-12-26T20:42:23.506Z,4.50
2018-12-26T20:44:52.557Z,4.50
2018-12-26T20:47:21.722Z,4.50
2018-12-26T20:49:50.758Z,4.50
2018-12-26T20:52:19.776Z,4.50
2018-12-26T20:54:48.882Z,4.50
2018-12-26T20:57:18.038Z,4.50
2018-12-26T20:59:46.958Z,4.40
2018-12-26T21:02:16.007Z,4.40
2018-12-26T21:04:45.081Z,4.40
2018-12-26T21:07:14.137Z,4.40
2018-12-26T21:09:44.467Z,4.40
2018-12-26T21:12:13.534Z,4.40
2018-12-26T21:14:42.807Z,4.50
2018-12-26T21:17:11.967Z,4.40
2018-12-26T21:19:41.154Z,4.40
2018-12-26T21:22:10.118Z,4.40
2018-12-26T21:24:39.205Z,4.30
2018-12-26T21:27:08.650Z,4.30
2018-12-26T21:29:37.627Z,4.30
2018-12-26T21:32:13.980Z,4.20
2018-12-26T21:34:37.470Z,4.20
2018-12-26T21:37:06.783Z,4.20
2018-12-26T21:39:35.903Z,4.10
2018-12-26T21:42:05.027Z,4.10
2018-12-26T21:44:34.055Z,4.10
2018-12-26T21:47:03.123Z,4.00
2018-12-26T21:49:32.140Z,4.00
2018-12-26T21:52:01.212Z,4.00
2018-12-26T21:54:30.829Z,4.00
2018-12-26T21:57:00.032Z,4.00
2018-12-26T21:59:30.790Z,4.00
2018-12-26T22:01:59.981Z,4.00
2018-12-26T22:04:29.058Z,4.00
2018-12-26T22:06:58.114Z,4.00
2018-12-26T22:09:27.083Z,4.00
2018-12-26T22:11:56.113Z,4.00
2018-12-26T22:14:25.021Z,4.10
2018-12-26T22:16:54.073Z,4.00
2018-12-26T22:19:23.146Z,4.00
2018-12-26T22:21:52.144Z,4.00
2018-12-26T22:24:21.152Z,4.00
2018-12-26T22:26:50.292Z,4.00
2018-12-26T22:29:19.415Z,4.10
2018-12-26T22:31:48.418Z,4.00
2018-12-26T22:34:17.526Z,4.10
2018-12-26T22:36:46.851Z,4.00
2018-12-26T22:39:15.945Z,4.00
2018-12-26T22:41:45.041Z,4.00
2018-12-26T22:44:15.436Z,4.10
2018-12-26T22:46:44.702Z,4.00
2018-12-26T22:49:13.631Z,4.10
2018-12-26T22:51:42.625Z,4.10
2018-12-26T22:54:11.971Z,4.10
2018-12-26T22:56:41.108Z,4.10
2018-12-26T22:59:10.179Z,4.10
2018-12-26T23:01:39.186Z,4.10
2018-12-26T23:04:08.226Z,4.00
2018-12-26T23:06:37.207Z,4.00
2018-12-26T23:09:10.568Z,4.00
2018-12-26T23:11:39.766Z,4.00
2018-12-26T23:14:08.797Z,4.00
2018-12-26T23:16:37.792Z,4.00
2018-12-26T23:19:06.849Z,4.00
2018-12-26T23:21:35.911Z,4.00
2018-12-26T23:24:04.960Z,4.00
2018-12-26T23:26:33.974Z,4.00
2018-12-26T23:29:02.957Z,4.00
2018-12-26T23:31:31.940Z,4.00
2018-12-26T23:34:00.922Z,4.00
2018-12-26T23:36:32.831Z,4.00
2018-12-26T23:39:01.740Z,4.00
2018-12-26T23:41:30.657Z,3.90
2018-12-26T23:43:59.840Z,3.90
2018-12-26T23:46:28.802Z,3.90
2018-12-26T23:48:57.726Z,3.90
2018-12-26T23:51:26.810Z,3.90
2018-12-26T23:53:55.860Z,3.80
2018-12-26T23:56:24.916Z,3.80
2018-12-26T23:58:53.981Z,3.80
